createdAt,value
2018-08-24T00:00:40.575Z,67.70
2018-08-24T00:03:09.656Z,68.46
2018-08-24T00:05:42.800Z,67.85
2018-08-24T00:08:12.472Z,67.91
2018-08-24T00:10:41.653Z,67.69
2018-08-24T00:13:10.738Z,67.87
2018-08-24T00:15:39.778Z,68.30
2018-08-24T00:18:08.883Z,68.02
2018-08-24T00:20:37.947Z,69.12
2018-08-24T00:23:06.978Z,70.79
2018-08-24T00:25:36.414Z,70.97
2018-08-24T00:28:06.007Z,70.59
2018-08-24T00:30:35.169Z,70.08
2018-08-24T00:33:04.238Z,69.71
2018-08-24T00:35:33.317Z,69.15
2018-08-24T00:38:02.418Z,69.83
2018-08-24T00:40:31.500Z,69.87
2018-08-24T00:43:00.581Z,69.20
2018-08-24T00:45:29.635Z,70.14
2018-08-24T00:47:58.797Z,69.75
2018-08-24T00:50:27.870Z,69.46
2018-08-24T00:52:56.990Z,70.09
2018-08-24T00:55:26.100Z,69.48
2018-08-24T00:57:55.114Z,70.12
2018-08-24T01:00:28.366Z,69.77
2018-08-24T01:02:57.827Z,68.76
2018-08-24T01:05:27.165Z,68.91
2018-08-24T01:08:01.460Z,71.33
2018-08-24T01:10:30.891Z,70.84
2018-08-24T01:12:59.939Z,70.11
2018-08-24T01:15:33.927Z,69.66
2018-08-24T01:18:08.249Z,70.18
2018-08-24T01:20:37.346Z,70.45
2018-08-24T01:23:06.646Z,70.77
2018-08-24T01:25:35.730Z,71.07
2018-08-24T01:28:04.825Z,70.73
2018-08-24T01:30:33.898Z,70.28
2018-08-24T01:33:02.977Z,71.53
2018-08-24T01:35:32.041Z,71.54
2018-08-24T01:38:01.118Z,70.65
2018-08-24T01:40:30.185Z,70.58
2018-08-24T01:42:59.353Z,70.77
2018-08-24T01:45:28.423Z,71.24
2018-08-24T01:47:57.934Z,70.78
2018-08-24T01:50:27.014Z,70.84
2018-08-24T01:52:56.133Z,71.75
2018-08-24T01:55:25.156Z,71.63
2018-08-24T01:57:54.647Z,72.15
2018-08-24T02:00:23.782Z,72.10
2018-08-24T02:02:52.845Z,71.30
2018-08-24T02:05:22.014Z,71.86
2018-08-24T02:07:51.077Z,72.01
2018-08-24T02:10:25.558Z,71.86
2018-08-24T02:12:59.970Z,72.11
2018-08-24T02:15:29.023Z,72.53
2018-08-24T02:18:03.322Z,71.96
2018-08-24T02:20:37.677Z,71.22
2018-08-24T02:23:12.726Z,71.42
2018-08-24T02:25:42.330Z,71.69
2018-08-24T02:28:11.484Z,71.08
2018-08-24T02:30:40.801Z,70.85
2018-08-24T02:33:09.857Z,71.49
2018-08-24T02:35:38.917Z,71.64
2018-08-24T02:38:08.006Z,71.99
2018-08-24T02:40:37.093Z,72.18
2018-08-24T02:43:06.118Z,71.78
2018-08-24T02:45:35.218Z,72.35
2018-08-24T02:48:04.562Z,73.81
2018-08-24T02:50:33.731Z,73.75
2018-08-24T02:53:02.739Z,75.02
2018-08-24T02:55:31.848Z,75.90
2018-08-24T02:58:00.877Z,75.22
2018-08-24T03:00:29.935Z,76.29
2018-08-24T03:02:58.982Z,75.88
2018-08-24T03:05:28.214Z,76.37
2018-08-24T03:07:57.631Z,77.22
2018-08-24T03:10:26.731Z,77.88
2018-08-24T03:12:55.791Z,77.81
2018-08-24T03:15:24.838Z,78.08
2018-08-24T03:17:54.679Z,77.77
2018-08-24T03:20:24.848Z,77.23
2018-08-24T03:22:54.519Z,77.56
2018-08-24T03:25:24.756Z,77.51
2018-08-24T03:27:53.880Z,78.25
2018-08-24T03:30:22.976Z,78.73
2018-08-24T03:32:52.057Z,78.05
2018-08-24T03:35:21.105Z,78.25
2018-08-24T03:37:50.194Z,76.36
2018-08-24T03:40:19.648Z,75.32
2018-08-24T03:42:48.738Z,74.74
2018-08-24T03:45:17.770Z,74.14
2018-08-24T03:47:46.834Z,74.38
2018-08-24T03:50:15.873Z,73.60
2018-08-24T03:52:44.959Z,73.07
2018-08-24T03:55:14.010Z,74.41
2018-08-24T03:57:43.078Z,75.51
2018-08-24T04:00:17.790Z,77.35
2018-08-24T04:02:47.337Z,77.28
2018-08-24T04:05:16.839Z,77.35
2018-08-24T04:07:45.966Z,77.36
2018-08-24T04:10:15.058Z,77.38
2018-08-24T04:12:44.569Z,75.97
2018-08-24T04:15:13.809Z,75.35
2018-08-24T04:17:44.242Z,76.43
2018-08-24T04:20:14.597Z,76.31
2018-08-24T04:22:43.674Z,75.26
2018-08-24T04:25:12.766Z,73.28
2018-08-24T04:27:41.851Z,73.23
2018-08-24T04:30:11.402Z,72.61
2018-08-24T04:32:40.485Z,72.98
2018-08-24T04:35:09.579Z,71.96
2018-08-24T04:37:38.967Z,72.44
2018-08-24T04:40:08.087Z,71.36
2018-08-24T04:42:37.144Z,71.74
2018-08-24T04:45:06.522Z,71.70
2018-08-24T04:47:35.623Z,71.62
2018-08-24T04:50:05.472Z,71.77
2018-08-24T04:52:34.530Z,71.99
2018-08-24T04:55:03.609Z,72.85
2018-08-24T04:57:32.701Z,72.23
2018-08-24T05:00:01.762Z,72.39
2018-08-24T05:02:30.863Z,71.84
2018-08-24T05:04:59.939Z,71.94
2018-08-24T05:07:29.018Z,72.52
2018-08-24T05:09:58.133Z,72.00
2018-08-24T05:12:27.792Z,71.93
2018-08-24T05:14:57.549Z,72.48
2018-08-24T05:17:26.613Z,72.52
2018-08-24T05:19:55.665Z,71.55
2018-08-24T05:22:24.774Z,71.88
2018-08-24T05:24:54.803Z,72.63
2018-08-24T05:27:23.737Z,72.45
2018-08-24T05:29:53.104Z,72.38
2018-08-24T05:32:22.198Z,72.74
2018-08-24T05:34:51.302Z,72.36
2018-08-24T05:37:20.394Z,71.70
2018-08-24T05:39:49.545Z,71.49
2018-08-24T05:42:21.615Z,71.96
2018-08-24T05:44:50.959Z,71.20
2018-08-24T05:47:20.121Z,71.19
2018-08-24T05:49:49.271Z,71.05
2018-08-24T05:52:18.534Z,71.02
2018-08-24T05:54:47.651Z,71.26
2018-08-24T05:57:17.038Z,71.93
2018-08-24T05:59:46.121Z,71.24
2018-08-24T06:02:15.244Z,71.08
2018-08-24T06:04:44.335Z,70.70
2018-08-24T06:07:13.462Z,70.09
2018-08-24T06:09:42.554Z,71.28
2018-08-24T06:12:11.644Z,69.69
2018-08-24T06:14:40.710Z,69.54
2018-08-24T06:17:15.086Z,69.60
2018-08-24T06:19:44.214Z,69.38
2018-08-24T06:22:13.322Z,69.07
2018-08-24T06:24:42.421Z,69.16
2018-08-24T06:27:11.486Z,68.62
2018-08-24T06:29:40.537Z,69.51
2018-08-24T06:32:09.611Z,69.28
2018-08-24T06:34:38.703Z,68.73
2018-08-24T06:37:07.773Z,67.55
2018-08-24T06:39:36.856Z,67.55
2018-08-24T06:42:06.168Z,68.00
2018-08-24T06:44:36.200Z,67.88
2018-08-24T06:47:05.887Z,67.07
2018-08-24T06:49:34.959Z,65.64
2018-08-24T06:52:03.992Z,67.21
2018-08-24T06:54:33.167Z,66.82
2018-08-24T06:57:02.310Z,66.82
2018-08-24T06:59:31.418Z,67.51
2018-08-24T07:02:00.450Z,66.90
2018-08-24T07:04:29.530Z,67.25
2018-08-24T07:06:58.582Z,65.58
2018-08-24T07:09:27.963Z,65.65
2018-08-24T07:11:57.058Z,66.98
2018-08-24T07:14:26.157Z,67.48
2018-08-24T07:16:59.810Z,65.88
2018-08-24T07:19:30.272Z,65.35
2018-08-24T07:21:59.579Z,63.12
2018-08-24T07:24:28.683Z,64.68
2018-08-24T07:26:58.157Z,61.80
2018-08-24T07:29:27.604Z,61.77
2018-08-24T07:31:56.730Z,61.56
2018-08-24T07:34:25.856Z,61.24
2018-08-24T07:36:54.961Z,59.70
2018-08-24T07:39:24.006Z,60.00
2018-08-24T07:41:53.674Z,60.32
2018-08-24T07:44:22.694Z,61.45
2018-08-24T07:46:51.750Z,62.18
2018-08-24T07:49:20.877Z,62.78
2018-08-24T07:51:50.019Z,61.80
2018-08-24T07:54:19.798Z,62.66
2018-08-24T07:56:49.322Z,62.53
2018-08-24T07:59:18.400Z,61.34
2018-08-24T08:01:47.790Z,63.44
2018-08-24T08:04:16.846Z,63.91
2018-08-24T08:06:46.001Z,65.31
2018-08-24T08:09:15.142Z,65.46
2018-08-24T08:11:44.307Z,66.69
2018-08-24T08:14:13.418Z,68.31
2018-08-24T08:16:42.697Z,70.98
2018-08-24T08:19:12.733Z,70.90
2018-08-24T08:21:41.947Z,72.00
2018-08-24T08:24:11.084Z,72.08
2018-08-24T08:26:42.707Z,72.16
2018-08-24T08:29:16.118Z,73.10
2018-08-24T08:31:45.286Z,71.42
2018-08-24T08:34:14.403Z,72.55
2018-08-24T08:36:43.566Z,72.97
2018-08-24T08:39:13.432Z,74.01
2018-08-24T08:41:42.894Z,75.57
2018-08-24T08:44:13.624Z,75.44
2018-08-24T08:46:42.975Z,75.78
2018-08-24T08:49:12.275Z,76.05
2018-08-24T08:51:41.408Z,75.81
2018-08-24T08:54:10.535Z,75.49
2018-08-24T08:56:39.714Z,76.04
2018-08-24T08:59:08.827Z,74.37
2018-08-24T09:01:37.951Z,75.02
2018-08-24T09:04:09.076Z,74.29
2018-08-24T09:06:38.295Z,73.39
2018-08-24T09:09:11.100Z,72.97
2018-08-24T09:11:40.237Z,73.52
2018-08-24T09:14:10.535Z,72.91
2018-08-24T09:16:39.625Z,71.55
2018-08-24T09:19:14.023Z,71.60
2018-08-24T09:21:50.126Z,70.72
2018-08-24T09:24:27.766Z,69.60
2018-08-24T09:27:02.480Z,71.07
2018-08-24T09:29:32.604Z,71.02
2018-08-24T09:32:02.157Z,70.95
2018-08-24T09:34:31.310Z,70.31
2018-08-24T09:37:01.062Z,70.13
2018-08-24T09:39:30.768Z,70.58
2018-08-24T09:42:00.767Z,69.96
2018-08-24T09:44:29.853Z,69.55
2018-08-24T09:47:04.525Z,69.92
2018-08-24T09:49:37.394Z,70.69
2018-08-24T09:52:12.263Z,70.62
2018-08-24T09:54:42.202Z,70.48
2018-08-24T09:57:11.670Z,70.31
2018-08-24T09:59:41.261Z,70.93
2018-08-24T10:02:15.826Z,70.59
2018-08-24T10:04:50.142Z,69.63
2018-08-24T10:07:28.459Z,69.24
2018-08-24T10:09:57.603Z,70.24
2018-08-24T10:12:26.763Z,70.22
2018-08-24T10:14:56.885Z,70.46
2018-08-24T10:17:25.951Z,70.44
2018-08-24T10:19:55.135Z,70.35
2018-08-24T10:22:24.236Z,70.59
2018-08-24T10:24:53.334Z,70.85
2018-08-24T10:27:22.543Z,69.72
2018-08-24T10:29:51.785Z,68.54
2018-08-24T10:32:20.746Z,68.44
2018-08-24T10:34:50.033Z,68.55
2018-08-24T10:37:19.242Z,69.40
2018-08-24T10:39:48.595Z,68.62
2018-08-24T10:42:17.727Z,69.20
2018-08-24T10:44:46.879Z,68.98
2018-08-24T10:47:16.392Z,68.12
2018-08-24T10:49:45.523Z,68.14
2018-08-24T10:52:14.693Z,67.35
2018-08-24T10:54:43.812Z,66.93
2018-08-24T10:57:12.913Z,67.04
2018-08-24T10:59:42.023Z,66.66
2018-08-24T11:02:11.415Z,67.19
2018-08-24T11:04:40.441Z,65.99
2018-08-24T11:07:09.572Z,66.31
2018-08-24T11:09:38.678Z,65.57
2018-08-24T11:12:08.077Z,64.67
2018-08-24T11:14:37.149Z,64.58
2018-08-24T11:17:06.255Z,64.74
2018-08-24T11:19:35.875Z,63.98
2018-08-24T11:22:04.999Z,64.21
2018-08-24T11:24:34.877Z,63.80
2018-08-24T11:27:04.381Z,63.63
2018-08-24T11:29:33.447Z,63.56
2018-08-24T11:32:02.649Z,63.44
2018-08-24T11:34:33.543Z,62.65
2018-08-24T11:37:03.023Z,62.64
2018-08-24T11:39:32.141Z,62.40
2018-08-24T11:42:01.271Z,62.97
2018-08-24T11:44:30.709Z,61.94
2018-08-24T11:47:00.478Z,61.78
2018-08-24T11:49:29.550Z,60.28
2018-08-24T11:51:58.684Z,59.55
2018-08-24T11:54:28.076Z,59.09
2018-08-24T11:56:57.174Z,58.68
2018-08-24T11:59:26.234Z,57.90
2018-08-24T12:01:55.448Z,57.76
2018-08-24T12:04:24.715Z,57.60
2018-08-24T12:06:53.846Z,57.31
2018-08-24T12:09:22.953Z,57.05
2018-08-24T12:11:52.110Z,55.70
2018-08-24T12:14:21.234Z,55.02
2018-08-24T12:16:50.329Z,55.65
2018-08-24T12:19:19.693Z,55.25
2018-08-24T12:21:48.707Z,55.45
2018-08-24T12:24:17.827Z,55.63
2018-08-24T12:26:46.875Z,54.08
2018-08-24T12:29:15.941Z,53.83
2018-08-24T12:31:45.026Z,52.97
2018-08-24T12:34:14.150Z,54.04
2018-08-24T12:36:43.259Z,53.85
2018-08-24T12:39:13.050Z,51.38
2018-08-24T12:41:42.138Z,51.39
2018-08-24T12:44:11.207Z,50.81
2018-08-24T12:46:40.315Z,50.75
2018-08-24T12:49:09.374Z,51.53
2018-08-24T12:51:38.599Z,51.84
2018-08-24T12:54:08.381Z,52.99
2018-08-24T12:56:37.492Z,52.07
2018-08-24T12:59:06.646Z,50.85
2018-08-24T13:01:35.740Z,51.36
2018-08-24T13:04:05.216Z,50.03
2018-08-24T13:06:34.485Z,50.30
2018-08-24T13:09:04.543Z,51.35
2018-08-24T13:11:34.583Z,51.38
2018-08-24T13:14:03.760Z,50.62
2018-08-24T13:16:32.865Z,50.67
2018-08-24T13:19:01.971Z,50.48
2018-08-24T13:21:31.131Z,50.65
2018-08-24T13:24:00.442Z,50.27
2018-08-24T13:26:29.523Z,49.64
2018-08-24T13:28:59.667Z,48.93
2018-08-24T13:31:28.813Z,48.98
2018-08-24T13:33:57.883Z,49.29
2018-08-24T13:36:26.946Z,48.48
2018-08-24T13:38:56.154Z,48.78
2018-08-24T13:41:25.173Z,50.04
2018-08-24T13:43:54.230Z,49.31
2018-08-24T13:46:23.315Z,49.58
2018-08-24T13:48:52.646Z,49.60
2018-08-24T13:51:21.723Z,47.63
2018-08-24T13:53:50.914Z,48.15
2018-08-24T13:56:19.980Z,48.40
2018-08-24T13:58:49.068Z,48.27
2018-08-24T14:01:18.143Z,48.36
2018-08-24T14:03:47.236Z,48.47
2018-08-24T14:06:16.298Z,48.86
2018-08-24T14:08:45.402Z,47.90
2018-08-24T14:11:14.543Z,47.55
2018-08-24T14:13:43.590Z,47.80
2018-08-24T14:16:12.677Z,47.70
2018-08-24T14:18:42.086Z,48.54
2018-08-24T14:21:11.163Z,48.54
2018-08-24T14:23:40.272Z,48.10
2018-08-24T14:26:09.363Z,48.08
2018-08-24T14:28:38.486Z,48.53
2018-08-24T14:31:07.546Z,49.59
2018-08-24T14:33:36.633Z,50.79
2018-08-24T14:36:06.309Z,51.10
2018-08-24T14:38:35.504Z,50.56
2018-08-24T14:41:04.551Z,51.65
2018-08-24T14:43:33.741Z,50.57
2018-08-24T14:46:02.790Z,48.84
2018-08-24T14:48:31.926Z,50.23
2018-08-24T14:51:01.031Z,48.25
2018-08-24T14:53:30.094Z,47.00
2018-08-24T14:55:59.182Z,46.66
2018-08-24T14:58:28.245Z,47.42
2018-08-24T15:00:57.343Z,48.68
2018-08-24T15:03:26.437Z,49.00
2018-08-24T15:05:55.541Z,49.49
2018-08-24T15:08:24.615Z,49.68
2018-08-24T15:10:54.376Z,49.47
2018-08-24T15:13:25.219Z,50.13
2018-08-24T15:15:56.357Z,49.64
2018-08-24T15:18:27.360Z,50.71
2018-08-24T15:20:57.461Z,49.49
2018-08-24T15:23:26.615Z,50.08
2018-08-24T15:25:55.713Z,50.24
2018-08-24T15:28:24.833Z,50.31
2018-08-24T15:30:53.948Z,50.60
2018-08-24T15:33:23.134Z,51.10
2018-08-24T15:35:53.152Z,53.91
2018-08-24T15:38:22.265Z,51.72
2018-08-24T15:40:51.294Z,50.77
2018-08-24T15:43:20.396Z,50.90
2018-08-24T15:45:49.565Z,48.84
2018-08-24T15:48:18.635Z,48.52
2018-08-24T15:50:47.813Z,48.69
2018-08-24T15:53:16.973Z,49.41
2018-08-24T15:55:46.126Z,48.01
2018-08-24T15:58:15.253Z,47.62
2018-08-24T16:00:44.374Z,48.11
2018-08-24T16:03:13.754Z,46.99
2018-08-24T16:05:42.871Z,47.70
2018-08-24T16:08:11.950Z,48.29
2018-08-24T16:10:41.060Z,47.45
2018-08-24T16:13:10.234Z,46.33
2018-08-24T16:15:39.276Z,45.95
2018-08-24T16:18:13.639Z,45.86
2018-08-24T16:20:42.715Z,44.46
2018-08-24T16:23:11.834Z,42.70
2018-08-24T16:25:40.902Z,43.58
2018-08-24T16:28:09.992Z,43.12
2018-08-24T16:30:39.140Z,43.92
2018-08-24T16:33:08.303Z,43.59
2018-08-24T16:35:37.519Z,44.53
2018-08-24T16:38:06.805Z,44.58
2018-08-24T16:40:35.837Z,44.53
2018-08-24T16:43:04.939Z,43.85
2018-08-24T16:45:34.049Z,43.64
2018-08-24T16:48:04.012Z,44.03
2018-08-24T16:50:33.116Z,43.74
2018-08-24T16:53:02.253Z,44.46
2018-08-24T16:55:31.419Z,44.71
2018-08-24T16:58:00.556Z,45.04
2018-08-24T17:00:30.100Z,45.92
2018-08-24T17:03:00.273Z,45.82
2018-08-24T17:05:29.438Z,44.97
2018-08-24T17:08:00.115Z,44.77
2018-08-24T17:10:30.642Z,44.44
2018-08-24T17:12:59.911Z,45.77
2018-08-24T17:15:29.389Z,46.08
2018-08-24T17:17:58.502Z,46.29
2018-08-24T17:20:27.638Z,46.56
2018-08-24T17:22:56.760Z,47.11
2018-08-24T17:25:25.945Z,47.23
2018-08-24T17:27:56.409Z,47.08
2018-08-24T17:30:25.854Z,47.25
2018-08-24T17:32:54.971Z,46.34
2018-08-24T17:35:24.706Z,45.74
2018-08-24T17:37:54.211Z,46.66
2018-08-24T17:40:29.551Z,46.33
2018-08-24T17:42:58.647Z,45.69
2018-08-24T17:45:28.922Z,43.91
2018-08-24T17:47:59.212Z,44.81
2018-08-24T17:50:28.475Z,43.94
2018-08-24T17:52:57.539Z,43.19
2018-08-24T17:55:26.871Z,42.56
2018-08-24T17:57:56.755Z,42.66
2018-08-24T18:00:25.871Z,42.11
2018-08-24T18:02:55.002Z,41.66
2018-08-24T18:05:24.055Z,40.03
2018-08-24T18:07:53.153Z,40.99
2018-08-24T18:10:22.326Z,40.44
2018-08-24T18:16:01.610Z,40.44
2018-08-24T18:18:31.613Z,40.42
2018-08-24T18:21:00.686Z,39.59
2018-08-24T18:23:29.914Z,40.33
2018-08-24T18:25:59.099Z,40.09
2018-08-24T18:28:28.291Z,40.30
2018-08-24T18:30:57.458Z,40.27
2018-08-24T18:33:26.673Z,41.29
2018-08-24T18:35:55.786Z,40.83
2018-08-24T18:38:25.060Z,40.74
2018-08-24T18:40:54.101Z,41.37
2018-08-24T18:43:23.515Z,41.21
2018-08-24T18:45:54.482Z,41.77
2018-08-24T18:48:23.566Z,41.63
2018-08-24T18:50:52.648Z,42.15
2018-08-24T18:53:21.707Z,42.31
2018-08-24T18:55:50.799Z,42.46
2018-08-24T18:58:19.914Z,42.65
2018-08-24T19:00:48.946Z,42.92
2018-08-24T19:03:17.994Z,42.95
2018-08-24T19:05:47.106Z,43.34
2018-08-24T19:08:16.206Z,42.71
2018-08-24T19:10:50.512Z,43.35
2018-08-24T19:13:19.618Z,43.36
2018-08-24T19:15:48.758Z,42.85
2018-08-24T19:18:23.167Z,43.68
2018-08-24T19:20:58.634Z,43.86
2018-08-24T19:23:27.661Z,44.83
2018-08-24T19:25:56.710Z,43.39
2018-08-24T19:28:30.985Z,43.57
2018-08-24T19:31:00.065Z,44.50
2018-08-24T19:33:29.130Z,43.70
2018-08-24T19:35:58.254Z,44.15
2018-08-24T19:38:27.315Z,43.45
2018-08-24T19:41:01.678Z,43.90
2018-08-24T19:43:31.179Z,43.99
2018-08-24T19:46:00.277Z,45.21
2018-08-24T19:48:34.657Z,45.48
2018-08-24T19:51:03.814Z,43.17
2018-08-24T19:53:32.985Z,44.15
2018-08-24T19:56:02.186Z,44.83
2018-08-24T19:58:36.529Z,43.35
2018-08-24T20:01:05.939Z,44.85
2018-08-24T20:03:34.987Z,44.13
2018-08-24T20:06:10.431Z,44.64
2018-08-24T20:08:44.815Z,45.38
2018-08-24T20:11:13.932Z,45.15
2018-08-24T20:13:43.084Z,43.47
2018-08-24T20:16:17.360Z,45.24
2018-08-24T20:18:46.443Z,43.04
2018-08-24T20:21:15.604Z,43.82
2018-08-24T20:23:44.723Z,44.72
2018-08-24T20:26:13.830Z,44.14
2018-08-24T20:28:42.972Z,44.70
2018-08-24T20:31:12.069Z,42.98
2018-08-24T20:33:41.177Z,43.09
2018-08-24T20:36:10.274Z,44.08
2018-08-24T20:38:39.373Z,44.29
2018-08-24T20:41:08.459Z,44.90
2018-08-24T20:43:37.698Z,43.16
2018-08-24T20:46:06.786Z,44.80
2018-08-24T20:48:35.885Z,42.82
2018-08-24T20:51:05.978Z,43.82
2018-08-24T20:53:35.065Z,43.67
2018-08-24T20:56:04.450Z,44.81
2018-08-24T20:58:33.591Z,45.37
2018-08-24T21:01:02.708Z,44.56
2018-08-24T21:03:31.789Z,44.65
2018-08-24T21:06:01.354Z,45.53
2018-08-24T21:08:30.409Z,44.98
2018-08-24T21:10:59.511Z,45.16
2018-08-24T21:13:28.653Z,45.02
2018-08-24T21:15:57.755Z,45.85
2018-08-24T21:18:26.859Z,44.54
2018-08-24T21:20:55.982Z,44.37
2018-08-24T21:23:25.345Z,44.64
2018-08-24T21:25:54.387Z,44.96
2018-08-24T21:28:23.566Z,45.62
2018-08-24T21:30:52.657Z,45.79
2018-08-24T21:33:22.122Z,46.13
2018-08-24T21:35:51.330Z,45.01
2018-08-24T21:38:20.433Z,45.99
2018-08-24T21:40:49.577Z,46.74
2018-08-24T21:43:18.669Z,45.29
2018-08-24T21:45:47.776Z,45.15
2018-08-24T21:48:16.821Z,45.87
2018-08-24T21:50:45.949Z,45.25
2018-08-24T21:53:15.050Z,46.47
2018-08-24T21:55:44.224Z,45.50
2018-08-24T21:58:13.306Z,45.62
2018-08-24T22:00:43.186Z,46.19
2018-08-24T22:03:13.710Z,46.15
2018-08-24T22:05:42.978Z,47.18
2018-08-24T22:08:12.095Z,47.18
2018-08-24T22:10:42.935Z,48.01
2018-08-24T22:13:12.981Z,46.51
2018-08-24T22:15:42.034Z,47.36
2018-08-24T22:18:11.133Z,47.58
2018-08-24T22:20:40.448Z,47.51
2018-08-24T22:23:09.557Z,46.92
2018-08-24T22:25:39.357Z,48.16
2018-08-24T22:28:08.671Z,47.85
2018-08-24T22:30:37.706Z,47.83
2018-08-24T22:33:07.598Z,49.22
2018-08-24T22:35:36.769Z,48.32
2018-08-24T22:38:06.178Z,48.44
2018-08-24T22:40:35.290Z,48.74
2018-08-24T22:43:09.044Z,48.68
2018-08-24T22:45:39.756Z,49.39
2018-08-24T22:48:08.866Z,50.75
2018-08-24T22:50:38.059Z,49.30
2018-08-24T22:53:07.192Z,50.54
2018-08-24T22:55:36.299Z,49.26
2018-08-24T22:58:05.454Z,49.09
2018-08-24T23:00:34.621Z,48.92
2018-08-24T23:03:03.734Z,49.88
2018-08-24T23:05:32.826Z,49.40
2018-08-24T23:08:04.425Z,49.04
2018-08-24T23:10:34.408Z,50.30
2018-08-24T23:13:03.896Z,50.09
2018-08-24T23:15:33.020Z,51.41
2018-08-24T23:18:02.130Z,49.62
2018-08-24T23:20:31.210Z,50.58
2018-08-24T23:23:00.286Z,51.00
2018-08-24T23:25:29.362Z,50.48
2018-08-24T23:27:58.473Z,50.15
2018-08-24T23:30:27.569Z,51.33
2018-08-24T23:32:56.678Z,51.09
2018-08-24T23:35:25.761Z,51.98
2018-08-24T23:37:54.885Z,50.53
2018-08-24T23:40:23.969Z,50.96
2018-08-24T23:42:53.082Z,51.75
2018-08-24T23:45:22.234Z,50.88
2018-08-24T23:47:51.367Z,51.57
2018-08-24T23:50:20.484Z,50.78
2018-08-24T23:52:49.602Z,51.39
2018-08-24T23:55:18.641Z,50.26
2018-08-24T23:57:47.738Z,50.74
